NO-0016 weather

Fiske Airfield
Surnadal, Møre og Romsdal, Norway

Public forecast

Using degrees Celsius for public forecast. Weather courtesy of forecast.io.

METAR (pilot weather report)

Closest report is Kristiansund Airport (Kvernberget), 33.8 nm (62.5 km) W. Retrieved 2019/07/23 00:20 UTC (18 minutes ago):

ENKB 230020Z AUTO 25007KT 9999 OVC043/// 16/12 Q1010 RMK WIND 745FT 26014KT

TAF (pilot weather forecast)

Forecast is more than 12 hours old.

Closest forecast is Ørland Airport, 43.9 nm (81.2 km) NNE. Retrieved 2019/07/22 00:57 UTC (24 hours ago):

TAF ENOL 222300Z 2300/2324 VRB05KT 9999 FEW025 BKN090 BECMG 2303/2305 24015KT BECMG 2305/2307 BKN012 PROB30 2305/2309 4000 RADZ BR BKN008 BECMG 2309/2311 VRB05KT SCT020 BKN070